Time,TemperatureF,DewpointF,PressureIn,WindDirection,WindDirectionDegrees,WindSpeedMPH,WindSpeedGustMPH,Humidity,HourlyPrecipIn,Conditions,Clouds,dailyrainin,SoftwareType,DateUTC
2013-11-05 00:01:00,44.7,35.9,30.22,SSE,158,0.0,3.0,71,0.00,,---,0.00,VWS V14.01,2013-11-05 05:01:00,
2013-11-05 00:06:00,44.6,35.8,30.22,SSE,158,1.0,1.0,71,0.00,,---,0.00,VWS V14.01,2013-11-05 05:06:00,
2013-11-05 00:11:00,44.6,36.2,30.22,SSE,158,0.0,1.0,72,0.00,,---,0.00,VWS V14.01,2013-11-05 05:11:00,
2013-11-05 00:16:00,44.6,36.2,30.22,SSE,158,0.0,1.0,72,0.00,,---,0.00,VWS V14.01,2013-11-05 05:16:00,
2013-11-05 00:21:00,44.6,36.2,30.22,SSE,158,0.0,1.0,72,0.00,,---,0.00,VWS V14.01,2013-11-05 05:21:00,
2013-11-05 00:26:00,44.7,36.6,30.22,SSE,158,0.0,1.0,73,0.00,,---,0.00,VWS V14.01,2013-11-05 05:26:00,
2013-11-05 00:31:00,44.7,36.6,30.22,SSE,158,0.0,0.0,73,0.00,,---,0.00,VWS V14.01,2013-11-05 05:31:00,
2013-11-05 00:36:00,44.7,36.6,30.22,SSE,158,0.0,0.0,73,0.00,,---,0.00,VWS V14.01,2013-11-05 05:36:00,
2013-11-05 00:41:00,44.7,36.9,30.22,SSE,158,2.0,2.0,74,0.00,,---,0.00,VWS V14.01,2013-11-05 05:41:00,
2013-11-05 00:46:00,44.8,37.0,30.22,SSE,158,0.0,2.0,74,0.00,,---,0.00,VWS V14.01,2013-11-05 05:46:00,
2013-11-05 00:51:00,44.9,37.1,30.22,SSE,158,0.0,2.0,74,0.00,,---,0.00,VWS V14.01,2013-11-05 05:51:00,
2013-11-05 00:56:00,45.0,37.6,30.22,SSE,158,0.0,2.0,75,0.00,,---,0.00,VWS V14.01,2013-11-05 05:56:00,
2013-11-05 01:01:00,45.1,37.7,30.22,SSE,158,0.0,3.0,75,0.00,,---,0.00,VWS V14.01,2013-11-05 06:01:00,
2013-11-05 01:06:00,45.3,37.9,30.22,SSE,158,0.0,3.0,75,0.00,,---,0.00,VWS V14.01,2013-11-05 06:06:00,
2013-11-05 01:11:00,45.5,38.0,30.22,SSE,160,0.0,3.0,75,0.00,,---,0.00,VWS V14.01,2013-11-05 06:11:00,
2013-11-05 01:16:00,45.6,38.2,30.22,SSE,160,0.0,3.0,75,0.00,,---,0.00,VWS V14.01,2013-11-05 06:16:00,
2013-11-05 01:21:00,45.7,38.2,30.22,SSE,159,0.0,3.0,75,0.00,,---,0.00,VWS V14.01,2013-11-05 06:21:00,
2013-11-05 01:26:00,45.9,38.8,30.22,SE,126,3.0,4.0,76,0.00,,---,0.00,VWS V14.01,2013-11-05 06:26:00,
2013-11-05 01:31:00,46.0,38.9,30.22,SSE,153,1.0,2.0,76,0.00,,---,0.00,VWS V14.01,2013-11-05 06:31:00,
2013-11-05 01:36:00,46.0,38.9,30.22,South,184,2.0,4.0,76,0.00,,---,0.00,VWS V14.01,2013-11-05 06:36:00,
2013-11-05 01:41:00,46.1,39.0,30.22,South,183,0.0,4.0,76,0.00,,---,0.00,VWS V14.01,2013-11-05 06:41:00,
2013-11-05 01:46:00,46.1,39.0,30.22,South,183,2.0,4.0,76,0.00,,---,0.00,VWS V14.01,2013-11-05 06:46:00,
2013-11-05 01:51:00,46.2,39.1,30.23,South,183,0.0,4.0,76,0.00,,---,0.00,VWS V14.01,2013-11-05 06:51:00,
2013-11-05 01:56:00,46.2,39.1,30.23,South,171,0.0,4.0,76,0.00,,---,0.00,VWS V14.01,2013-11-05 06:56:00,
2013-11-05 02:01:00,46.3,39.2,30.23,South,171,2.0,2.0,76,0.00,,---,0.00,VWS V14.01,2013-11-05 07:01:00,
2013-11-05 02:06:00,46.3,39.5,30.23,South,171,0.0,2.0,77,0.00,,---,0.00,VWS V14.01,2013-11-05 07:06:00,
2013-11-05 02:11:00,46.3,39.5,30.23,SSE,158,2.0,3.0,77,0.00,,---,0.00,VWS V14.01,2013-11-05 07:11:00,
2013-11-05 02:16:00,46.4,39.6,30.23,SSE,158,1.0,3.0,77,0.00,,---,0.00,VWS V14.01,2013-11-05 07:16:00,
2013-11-05 02:21:00,46.4,39.6,30.23,SSE,158,1.0,3.0,77,0.00,,---,0.00,VWS V14.01,2013-11-05 07:21:00,
2013-11-05 02:26:00,46.4,39.6,30.23,SE,146,0.0,3.0,77,0.00,,---,0.00,VWS V14.01,2013-11-05 07:26:00,
2013-11-05 02:31:00,46.5,39.7,30.23,SSE,151,0.0,0.0,77,0.00,,---,0.00,VWS V14.01,2013-11-05 07:31:00,
2013-11-05 02:36:00,46.5,40.0,30.23,SSE,151,0.0,1.0,78,0.00,,---,0.00,VWS V14.01,2013-11-05 07:36:00,
2013-11-05 02:41:00,46.5,40.0,30.23,SSE,151,0.0,2.0,78,0.00,,---,0.00,VWS V14.01,2013-11-05 07:41:00,
2013-11-05 02:46:00,46.5,40.0,30.23,SSE,151,0.0,2.0,78,0.00,,---,0.00,VWS V14.01,2013-11-05 07:46:00,
2013-11-05 02:51:00,46.6,40.5,30.23,SE,146,0.0,3.0,79,0.00,,---,0.00,VWS V14.01,2013-11-05 07:51:00,
2013-11-05 02:56:00,46.7,40.5,30.23,SSE,157,0.0,3.0,79,0.00,,---,0.00,VWS V14.01,2013-11-05 07:56:00,
2013-11-05 03:01:00,46.8,40.6,30.23,SSE,159,0.0,0.0,79,0.00,,---,0.00,VWS V14.01,2013-11-05 08:01:00,
2013-11-05 03:06:00,46.8,41.0,30.23,SSE,159,0.0,3.0,80,0.00,,---,0.00,VWS V14.01,2013-11-05 08:06:00,
2013-11-05 03:11:00,47.0,41.2,30.23,SSE,159,0.0,3.0,80,0.00,,---,0.00,VWS V14.01,2013-11-05 08:11:00,
2013-11-05 03:16:00,47.3,41.8,30.23,South,181,1.0,3.0,81,0.00,,---,0.00,VWS V14.01,2013-11-05 08:16:00,
2013-11-05 03:21:00,47.9,42.4,30.23,WSW,241,1.0,4.0,81,0.00,,---,0.00,VWS V14.01,2013-11-05 08:21:00,
2013-11-05 03:26:00,48.4,42.8,30.23,West,260,0.0,4.0,81,0.00,,---,0.00,VWS V14.01,2013-11-05 08:26:00,
2013-11-05 03:31:00,48.8,42.9,30.23,West,260,2.0,2.0,80,0.00,,---,0.00,VWS V14.01,2013-11-05 08:31:00,
2013-11-05 03:36:00,49.1,43.2,30.23,West,260,1.0,3.0,80,0.00,,---,0.00,VWS V14.01,2013-11-05 08:36:00,
2013-11-05 03:41:00,49.3,43.4,30.23,West,260,2.0,3.0,80,0.00,,---,0.00,VWS V14.01,2013-11-05 08:41:00,
2013-11-05 03:46:00,49.4,43.5,30.23,West,260,1.0,3.0,80,0.00,,---,0.00,VWS V14.01,2013-11-05 08:46:00,
2013-11-05 03:51:00,49.5,43.6,30.23,West,260,2.0,3.0,80,0.00,,---,0.00,VWS V14.01,2013-11-05 08:51:00,
2013-11-05 03:56:00,49.5,43.6,30.24,SW,227,2.0,5.0,80,0.00,,---,0.00,VWS V14.01,2013-11-05 08:56:00,
2013-11-05 04:01:00,49.5,43.6,30.24,SW,236,4.0,4.0,80,0.00,,---,0.00,VWS V14.01,2013-11-05 09:01:00,
2013-11-05 04:06:00,49.6,43.7,30.24,WSW,247,2.0,4.0,80,0.00,,---,0.00,VWS V14.01,2013-11-05 09:06:00,
2013-11-05 04:11:00,49.6,43.7,30.24,WSW,247,1.0,4.0,80,0.00,,---,0.00,VWS V14.01,2013-11-05 09:11:00,
2013-11-05 04:16:00,49.6,43.7,30.24,WSW,247,0.0,4.0,80,0.00,,---,0.00,VWS V14.01,2013-11-05 09:16:00,
2013-11-05 04:21:00,49.6,43.7,30.24,WSW,247,0.0,4.0,80,0.00,,---,0.00,VWS V14.01,2013-11-05 09:21:00,
2013-11-05 04:26:00,49.6,43.7,30.24,WSW,247,0.0,4.0,80,0.00,,---,0.00,VWS V14.01,2013-11-05 09:26:00,
2013-11-05 04:31:00,49.5,43.9,30.24,SSW,210,2.0,2.0,81,0.00,,---,0.00,VWS V14.01,2013-11-05 09:31:00,
2013-11-05 04:36:00,49.5,43.9,30.24,SW,217,0.0,2.0,81,0.00,,---,0.00,VWS V14.01,2013-11-05 09:36:00,
2013-11-05 04:41:00,49.5,43.9,30.24,SW,217,0.0,2.0,81,0.00,,---,0.00,VWS V14.01,2013-11-05 09:41:00,
2013-11-05 04:46:00,49.4,43.8,30.25,SW,217,1.0,2.0,81,0.00,,---,0.00,VWS V14.01,2013-11-05 09:46:00,
2013-11-05 04:51:00,49.4,43.8,30.25,WSW,246,1.0,3.0,81,0.00,,---,0.00,VWS V14.01,2013-11-05 09:51:00,
2013-11-05 04:56:00,49.4,43.8,30.25,WSW,246,2.0,3.0,81,0.00,,---,0.00,VWS V14.01,2013-11-05 09:56:00,
2013-11-05 05:01:00,49.5,43.9,30.25,SSW,192,2.0,2.0,81,0.00,,---,0.00,VWS V14.01,2013-11-05 10:01:00,
2013-11-05 05:06:00,49.5,43.9,30.25,SSW,192,0.0,3.0,81,0.00,,---,0.00,VWS V14.01,2013-11-05 10:06:00,
2013-11-05 05:11:00,49.5,43.9,30.25,SSW,192,0.0,3.0,81,0.00,,---,0.00,VWS V14.01,2013-11-05 10:11:00,
2013-11-05 05:16:00,49.5,44.2,30.25,SSW,192,1.0,3.0,82,0.00,,---,0.00,VWS V14.01,2013-11-05 10:16:00,
2013-11-05 05:21:00,49.5,44.2,30.25,SSW,192,0.0,3.0,82,0.00,,---,0.00,VWS V14.01,2013-11-05 10:21:00,
2013-11-05 05:25:00,49.5,44.2,30.25,SSW,192,0.0,3.0,82,0.00,,---,0.00,VWS V14.01,2013-11-05 10:25:00,
2013-11-05 05:30:00,49.5,44.2,30.26,SSW,192,0.0,3.0,82,0.00,,---,0.00,VWS V14.01,2013-11-05 10:30:00,
2013-11-05 05:35:00,49.5,44.2,30.26,SSW,192,0.0,3.0,82,0.00,,---,0.00,VWS V14.01,2013-11-05 10:35:00,
2013-11-05 05:40:00,49.5,44.2,30.26,SSW,192,0.0,3.0,82,0.00,,---,0.00,VWS V14.01,2013-11-05 10:40:00,
2013-11-05 05:45:00,49.5,44.2,30.26,SSW,192,0.0,3.0,82,0.00,,---,0.00,VWS V14.01,2013-11-05 10:45:00,
2013-11-05 05:50:00,49.5,44.6,30.26,SSW,192,0.0,3.0,83,0.00,,---,0.00,VWS V14.01,2013-11-05 10:50:00,
2013-11-05 05:55:00,49.4,44.5,30.26,SSW,192,1.0,3.0,83,0.00,,---,0.00,VWS V14.01,2013-11-05 10:55:00,
2013-11-05 06:00:00,49.5,44.6,30.26,SSW,192,0.0,3.0,83,0.00,,---,0.00,VWS V14.01,2013-11-05 11:00:00,
2013-11-05 06:05:00,49.4,44.5,30.26,SSW,192,0.0,1.0,83,0.00,,---,0.00,VWS V14.01,2013-11-05 11:05:00,
2013-11-05 06:10:00,49.5,44.6,30.26,SSW,192,0.0,1.0,83,0.00,,---,0.00,VWS V14.01,2013-11-05 11:10:00,
2013-11-05 06:15:00,49.5,44.6,30.27,SSW,192,2.0,2.0,83,0.00,,---,0.00,VWS V14.01,2013-11-05 11:15:00,
2013-11-05 06:20:00,49.5,44.6,30.27,SSW,192,0.0,2.0,83,0.00,,---,0.00,VWS V14.01,2013-11-05 11:20:00,
2013-11-05 06:25:00,49.4,44.8,30.27,SSW,192,0.0,2.0,84,0.00,,---,0.00,VWS V14.01,2013-11-05 11:25:00,
2013-11-05 06:30:00,49.4,44.8,30.27,SSW,193,0.0,3.0,84,0.00,,---,0.00,VWS V14.01,2013-11-05 11:30:00,
2013-11-05 06:35:00,49.3,44.7,30.27,SW,223,1.0,3.0,84,0.00,,---,0.00,VWS V14.01,2013-11-05 11:35:00,
2013-11-05 06:40:00,49.3,44.7,30.27,SW,223,0.0,3.0,84,0.00,,---,0.00,VWS V14.01,2013-11-05 11:40:00,
2013-11-05 06:45:00,49.3,44.7,30.27,SW,223,0.0,3.0,84,0.00,,---,0.00,VWS V14.01,2013-11-05 11:45:00,
2013-11-05 06:50:00,49.3,44.7,30.28,SW,223,0.0,3.0,84,0.00,,---,0.00,VWS V14.01,2013-11-05 11:50:00,
2013-11-05 06:55:00,49.3,44.7,30.28,SW,223,0.0,3.0,84,0.00,,---,0.00,VWS V14.01,2013-11-05 11:55:00,
2013-11-05 07:00:00,49.2,44.6,30.28,SW,223,0.0,3.0,84,0.00,,---,0.00,VWS V14.01,2013-11-05 12:00:00,
2013-11-05 07:05:00,49.2,44.9,30.28,SW,223,0.0,1.0,85,0.00,,---,0.00,VWS V14.01,2013-11-05 12:05:00,
2013-11-05 07:10:00,49.2,44.9,30.28,SW,223,0.0,1.0,85,0.00,,---,0.00,VWS V14.01,2013-11-05 12:10:00,
2013-11-05 07:15:00,49.1,44.8,30.28,SW,223,0.0,1.0,85,0.00,,---,0.00,VWS V14.01,2013-11-05 12:15:00,
2013-11-05 07:20:00,49.1,44.8,30.28,SW,223,0.0,1.0,85,0.00,,---,0.00,VWS V14.01,2013-11-05 12:20:00,
2013-11-05 07:25:00,49.0,44.7,30.28,SW,223,0.0,1.0,85,0.00,,---,0.00,VWS V14.01,2013-11-05 12:25:00,
2013-11-05 07:30:00,48.9,44.6,30.28,SW,223,0.0,1.0,85,0.00,,---,0.00,VWS V14.01,2013-11-05 12:30:00,
2013-11-05 07:35:00,48.9,44.6,30.28,SW,223,0.0,1.0,85,0.00,,---,0.00,VWS V14.01,2013-11-05 12:35:00,
2013-11-05 07:40:00,48.8,44.8,30.28,SW,223,0.0,1.0,86,0.00,,---,0.00,VWS V14.01,2013-11-05 12:40:00,
2013-11-05 07:45:00,48.8,44.8,30.28,SW,223,0.0,1.0,86,0.00,,---,0.00,VWS V14.01,2013-11-05 12:45:00,
2013-11-05 07:50:00,48.7,44.7,30.28,SW,223,0.0,1.0,86,0.00,,---,0.00,VWS V14.01,2013-11-05 12:50:00,
2013-11-05 07:55:00,48.7,44.7,30.29,SW,223,0.0,1.0,86,0.00,,---,0.00,VWS V14.01,2013-11-05 12:55:00,
2013-11-05 08:00:00,48.7,44.7,30.29,SW,223,0.0,1.0,86,0.00,,---,0.00,VWS V14.01,2013-11-05 13:00:00,
2013-11-05 08:05:00,48.7,44.7,30.29,SW,223,0.0,0.0,86,0.00,,---,0.00,VWS V14.01,2013-11-05 13:05:00,
2013-11-05 08:10:00,48.7,44.7,30.29,SW,223,0.0,1.0,86,0.00,,---,0.00,VWS V14.01,2013-11-05 13:10:00,
2013-11-05 08:15:00,48.7,45.0,30.29,SW,223,0.0,1.0,87,0.00,,---,0.00,VWS V14.01,2013-11-05 13:15:00,
2013-11-05 08:20:00,48.7,45.0,30.29,SW,223,0.0,1.0,87,0.00,,---,0.00,VWS V14.01,2013-11-05 13:20:00,
2013-11-05 08:25:00,48.6,44.9,30.29,SW,223,0.0,1.0,87,0.00,,---,0.00,VWS V14.01,2013-11-05 13:25:00,
2013-11-05 08:30:00,48.7,45.0,30.29,SW,223,0.0,1.0,87,0.00,,---,0.00,VWS V14.01,2013-11-05 13:30:00,
2013-11-05 08:35:00,48.7,45.0,30.29,ESE,119,1.0,2.0,87,0.00,,---,0.00,VWS V14.01,2013-11-05 13:35:00,
2013-11-05 08:40:00,48.8,45.4,30.29,ESE,119,0.0,2.0,88,0.00,,---,0.00,VWS V14.01,2013-11-05 13:40:00,
2013-11-05 08:45:00,48.8,45.4,30.29,ESE,119,0.0,2.0,88,0.00,,---,0.00,VWS V14.01,2013-11-05 13:45:00,
2013-11-05 08:50:00,48.9,45.5,30.29,ESE,119,1.0,2.0,88,0.00,,---,0.00,VWS V14.01,2013-11-05 13:50:00,
2013-11-05 08:55:00,48.9,45.5,30.29,ESE,120,0.0,2.0,88,0.00,,---,0.00,VWS V14.01,2013-11-05 13:55:00,
2013-11-05 09:00:00,49.0,45.6,30.29,ESE,120,0.0,2.0,88,0.00,,---,0.00,VWS V14.01,2013-11-05 14:00:00,
2013-11-05 09:05:00,49.1,45.7,30.30,ESE,120,2.0,2.0,88,0.00,,---,0.00,VWS V14.01,2013-11-05 14:05:00,
2013-11-05 09:10:00,49.2,45.8,30.29,ESE,120,0.0,2.0,88,0.00,,---,0.00,VWS V14.01,2013-11-05 14:10:00,
2013-11-05 09:15:00,49.3,45.9,30.30,ESE,120,0.0,2.0,88,0.00,,---,0.00,VWS V14.01,2013-11-05 14:15:00,
2013-11-05 09:20:00,49.4,46.0,30.30,SE,127,2.0,2.0,88,0.00,,---,0.00,VWS V14.01,2013-11-05 14:20:00,
2013-11-05 09:25:00,49.5,46.1,30.30,SSE,165,0.0,2.0,88,0.00,,---,0.00,VWS V14.01,2013-11-05 14:25:00,
2013-11-05 09:30:00,49.6,45.9,30.30,South,180,2.0,2.0,87,0.00,,---,0.00,VWS V14.01,2013-11-05 14:30:00,
2013-11-05 09:35:00,49.8,46.1,30.30,South,180,0.0,1.0,87,0.00,,---,0.00,VWS V14.01,2013-11-05 14:35:00,
2013-11-05 09:40:00,49.9,46.2,30.30,South,180,0.0,1.0,87,0.00,,---,0.00,VWS V14.01,2013-11-05 14:40:00,
2013-11-05 09:45:00,50.0,46.3,30.30,South,180,0.0,1.0,87,0.00,,---,0.00,VWS V14.01,2013-11-05 14:45:00,
2013-11-05 09:50:00,50.1,46.4,30.30,South,180,0.0,1.0,87,0.00,,---,0.00,VWS V14.01,2013-11-05 14:50:00,
2013-11-05 09:55:00,50.2,46.5,30.29,South,180,0.0,1.0,87,0.00,,---,0.00,VWS V14.01,2013-11-05 14:55:00,
2013-11-05 10:00:00,50.3,46.6,30.29,South,179,0.0,1.0,87,0.00,,---,0.00,VWS V14.01,2013-11-05 15:00:00,
2013-11-05 10:05:00,50.5,46.8,30.29,South,180,0.0,1.0,87,0.00,,---,0.00,VWS V14.01,2013-11-05 15:05:00,
2013-11-05 10:10:00,50.6,46.9,30.30,South,179,0.0,2.0,87,0.00,,---,0.00,VWS V14.01,2013-11-05 15:10:00,
2013-11-05 10:15:00,50.8,47.1,30.30,South,180,0.0,2.0,87,0.00,,---,0.00,VWS V14.01,2013-11-05 15:15:00,
2013-11-05 10:20:00,51.0,47.0,30.29,South,179,0.0,2.0,86,0.00,,---,0.00,VWS V14.01,2013-11-05 15:20:00,
2013-11-05 10:25:00,51.2,47.2,30.29,South,180,0.0,2.0,86,0.00,,---,0.00,VWS V14.01,2013-11-05 15:25:00,
2013-11-05 10:30:00,51.5,47.5,30.30,South,180,0.0,2.0,86,0.00,,---,0.00,VWS V14.01,2013-11-05 15:30:00,
2013-11-05 10:35:00,51.7,47.3,30.30,South,180,0.0,1.0,85,0.00,,---,0.00,VWS V14.01,2013-11-05 15:35:00,
2013-11-05 10:40:00,52.0,47.6,30.30,South,180,0.0,1.0,85,0.00,,---,0.00,VWS V14.01,2013-11-05 15:40:00,
2013-11-05 10:45:00,52.3,47.9,30.30,South,179,1.0,3.0,85,0.00,,---,0.00,VWS V14.01,2013-11-05 15:45:00,
2013-11-05 10:50:00,52.7,48.3,30.30,SW,234,4.0,4.0,85,0.00,,---,0.00,VWS V14.01,2013-11-05 15:50:00,
2013-11-05 10:55:00,52.8,48.1,30.30,SW,234,3.0,7.0,84,0.00,,---,0.00,VWS V14.01,2013-11-05 15:55:00,
2013-11-05 11:00:00,52.9,48.2,30.30,WSW,255,1.0,7.0,84,0.00,,---,0.00,VWS V14.01,2013-11-05 16:00:00,
2013-11-05 11:05:00,53.2,48.5,30.29,South,173,1.0,5.0,84,0.00,,---,0.00,VWS V14.01,2013-11-05 16:05:00,
2013-11-05 11:10:00,53.6,48.6,30.29,SSW,207,3.0,5.0,83,0.00,,---,0.00,VWS V14.01,2013-11-05 16:10:00,
2013-11-05 11:15:00,53.9,48.9,30.29,SW,214,3.0,7.0,83,0.00,,---,0.00,VWS V14.01,2013-11-05 16:15:00,
2013-11-05 11:20:00,54.1,48.7,30.29,West,271,3.0,7.0,82,0.00,,---,0.00,VWS V14.01,2013-11-05 16:20:00,
2013-11-05 11:25:00,54.7,49.3,30.29,SSW,206,1.0,7.0,82,0.00,,---,0.00,VWS V14.01,2013-11-05 16:25:00,
2013-11-05 11:30:00,55.1,49.4,30.29,SSW,207,2.0,7.0,81,0.00,,---,0.00,VWS V14.01,2013-11-05 16:30:00,
2013-11-05 11:35:00,55.3,49.2,30.29,West,261,0.0,4.0,80,0.00,,---,0.00,VWS V14.01,2013-11-05 16:35:00,
2013-11-05 11:40:00,55.7,49.3,30.28,SSW,207,2.0,4.0,79,0.00,,---,0.00,VWS V14.01,2013-11-05 16:40:00,
2013-11-05 11:45:00,55.8,49.4,30.29,SW,221,1.0,5.0,79,0.00,,---,0.00,VWS V14.01,2013-11-05 16:45:00,
2013-11-05 11:50:00,55.7,49.3,30.28,SW,225,2.0,5.0,79,0.00,,---,0.00,VWS V14.01,2013-11-05 16:50:00,
2013-11-05 11:55:00,55.5,49.1,30.28,WSW,238,1.0,5.0,79,0.00,,---,0.00,VWS V14.01,2013-11-05 16:55:00,
2013-11-05 12:00:00,55.6,49.2,30.28,SW,226,4.0,5.0,79,0.00,,---,0.00,VWS V14.01,2013-11-05 17:00:00,
2013-11-05 12:05:00,55.6,49.5,30.28,West,261,1.0,4.0,80,0.00,,---,0.00,VWS V14.01,2013-11-05 17:05:00,
2013-11-05 12:10:00,55.9,49.5,30.28,West,261,0.0,4.0,79,0.00,,---,0.00,VWS V14.01,2013-11-05 17:10:00,
2013-11-05 12:15:00,56.1,49.3,30.28,West,261,0.0,4.0,78,0.00,,---,0.00,VWS V14.01,2013-11-05 17:15:00,
2013-11-05 12:20:00,56.2,49.8,30.27,West,261,0.0,4.0,79,0.00,,---,0.00,VWS V14.01,2013-11-05 17:20:00,
2013-11-05 12:25:00,56.4,49.3,30.27,West,261,1.0,4.0,77,0.00,,---,0.00,VWS V14.01,2013-11-05 17:25:00,
2013-11-05 12:30:00,56.8,50.0,30.27,NNW,333,0.0,4.0,78,0.00,,---,0.00,VWS V14.01,2013-11-05 17:30:00,
2013-11-05 12:35:00,57.5,50.0,30.26,SW,222,2.0,2.0,76,0.00,,---,0.00,VWS V14.01,2013-11-05 17:35:00,
2013-11-05 12:40:00,57.8,49.6,30.27,SW,223,3.0,5.0,74,0.00,,---,0.00,VWS V14.01,2013-11-05 17:40:00,
2013-11-05 12:45:00,57.5,49.7,30.27,South,178,0.0,5.0,75,0.00,,---,0.00,VWS V14.01,2013-11-05 17:45:00,
2013-11-05 12:50:00,57.4,49.5,30.26,SW,216,3.0,5.0,75,0.00,,---,0.00,VWS V14.01,2013-11-05 17:50:00,
2013-11-05 12:55:00,57.3,49.5,30.26,South,190,3.0,5.0,75,0.00,,---,0.00,VWS V14.01,2013-11-05 17:55:00,
2013-11-05 13:00:00,57.2,49.4,30.26,SSW,203,2.0,5.0,75,0.00,,---,0.00,VWS V14.01,2013-11-05 18:00:00,
2013-11-05 13:05:00,57.1,49.3,30.26,SW,219,2.0,5.0,75,0.00,,---,0.00,VWS V14.01,2013-11-05 18:05:00,
2013-11-05 13:10:00,56.9,49.1,30.26,SW,219,0.0,5.0,75,0.00,,---,0.00,VWS V14.01,2013-11-05 18:10:00,
2013-11-05 13:15:00,56.9,49.1,30.26,SW,219,1.0,5.0,75,0.00,,---,0.00,VWS V14.01,2013-11-05 18:15:00,
2013-11-05 13:20:00,57.1,49.3,30.26,WSW,244,1.0,5.0,75,0.00,,---,0.00,VWS V14.01,2013-11-05 18:20:00,
2013-11-05 13:25:00,57.2,49.4,30.26,WSW,245,0.0,6.0,75,0.00,,---,0.00,VWS V14.01,2013-11-05 18:25:00,
2013-11-05 13:30:00,57.2,49.0,30.25,SE,132,3.0,7.0,74,0.00,,---,0.00,VWS V14.01,2013-11-05 18:30:00,
2013-11-05 13:35:00,57.2,49.0,30.25,SSW,203,2.0,6.0,74,0.00,,---,0.00,VWS V14.01,2013-11-05 18:35:00,
2013-11-05 13:40:00,57.3,49.1,30.25,SSW,207,2.0,6.0,74,0.00,,---,0.00,VWS V14.01,2013-11-05 18:40:00,
2013-11-05 13:45:00,57.4,49.2,30.25,SW,215,0.0,6.0,74,0.00,,---,0.00,VWS V14.01,2013-11-05 18:45:00,
2013-11-05 13:50:00,57.5,49.3,30.25,SSW,209,2.0,6.0,74,0.00,,---,0.00,VWS V14.01,2013-11-05 18:50:00,
2013-11-05 13:55:00,57.5,49.3,30.24,SW,216,5.0,6.0,74,0.00,,---,0.00,VWS V14.01,2013-11-05 18:55:00,
2013-11-05 14:00:00,57.5,49.3,30.24,SSW,206,4.0,6.0,74,0.00,,---,0.00,VWS V14.01,2013-11-05 19:00:00,
2013-11-05 14:05:00,57.5,48.9,30.24,SSW,208,2.0,5.0,73,0.00,,---,0.00,VWS V14.01,2013-11-05 19:05:00,
2013-11-05 14:10:00,57.7,49.1,30.24,SSW,203,6.0,9.0,73,0.00,,---,0.00,VWS V14.01,2013-11-05 19:10:00,
2013-11-05 14:15:00,58.0,49.8,30.23,SSW,194,3.0,9.0,74,0.00,,---,0.00,VWS V14.01,2013-11-05 19:15:00,
2013-11-05 14:20:00,58.2,49.6,30.23,SSW,211,3.0,9.0,73,0.00,,---,0.00,VWS V14.01,2013-11-05 19:20:00,
2013-11-05 14:25:00,58.1,49.5,30.23,SW,219,0.0,9.0,73,0.00,,---,0.00,VWS V14.01,2013-11-05 19:25:00,
2013-11-05 14:30:00,58.2,49.6,30.24,SSW,194,2.0,9.0,73,0.00,,---,0.00,VWS V14.01,2013-11-05 19:30:00,
2013-11-05 14:34:00,58.2,49.2,30.24,SSW,213,2.0,6.0,72,0.00,,---,0.00,VWS V14.01,2013-11-05 19:34:00,
2013-11-05 14:39:00,58.0,49.4,30.23,SW,228,1.0,6.0,73,0.00,,---,0.00,VWS V14.01,2013-11-05 19:39:00,
2013-11-05 14:44:00,58.0,49.4,30.23,SSW,207,2.0,6.0,73,0.00,,---,0.00,VWS V14.01,2013-11-05 19:44:00,
2013-11-05 14:49:00,57.9,49.7,30.23,SW,234,0.0,6.0,74,0.00,,---,0.00,VWS V14.01,2013-11-05 19:49:00,
2013-11-05 14:54:00,58.0,49.4,30.23,WSW,238,0.0,6.0,73,0.00,,---,0.00,VWS V14.01,2013-11-05 19:54:00,
2013-11-05 14:59:00,58.0,49.4,30.23,SSW,194,0.0,6.0,73,0.00,,---,0.00,VWS V14.01,2013-11-05 19:59:00,
2013-11-05 15:04:00,58.1,49.5,30.22,SE,135,1.0,4.0,73,0.00,,---,0.00,VWS V14.01,2013-11-05 20:04:00,
2013-11-05 15:09:00,58.2,49.6,30.22,SSW,192,0.0,4.0,73,0.00,,---,0.00,VWS V14.01,2013-11-05 20:09:00,
2013-11-05 15:14:00,58.3,49.7,30.22,SE,144,0.0,5.0,73,0.00,,---,0.00,VWS V14.01,2013-11-05 20:14:00,
2013-11-05 15:19:00,58.4,49.4,30.22,WSW,256,0.0,5.0,72,0.00,,---,0.00,VWS V14.01,2013-11-05 20:19:00,
2013-11-05 15:24:00,58.4,49.4,30.22,SW,223,3.0,5.0,72,0.00,,---,0.00,VWS V14.01,2013-11-05 20:24:00,
2013-11-05 15:29:00,58.2,48.8,30.22,SSW,200,2.0,5.0,71,0.00,,---,0.00,VWS V14.01,2013-11-05 20:29:00,
2013-11-05 15:34:00,58.1,49.1,30.22,South,190,3.0,5.0,72,0.00,,---,0.00,VWS V14.01,2013-11-05 20:34:00,
2013-11-05 15:39:00,58.1,49.1,30.21,SSW,197,2.0,7.0,72,0.00,,---,0.00,VWS V14.01,2013-11-05 20:39:00,
2013-11-05 15:44:00,58.1,49.1,30.21,South,182,0.0,7.0,72,0.00,,---,0.00,VWS V14.01,2013-11-05 20:44:00,
2013-11-05 15:49:00,58.1,48.8,30.21,SSW,194,1.0,7.0,71,0.00,,---,0.00,VWS V14.01,2013-11-05 20:49:00,
2013-11-05 15:54:00,58.0,49.0,30.21,South,186,2.0,7.0,72,0.00,,---,0.00,VWS V14.01,2013-11-05 20:54:00,
2013-11-05 15:59:00,57.9,48.9,30.21,South,179,2.0,7.0,72,0.00,,---,0.00,VWS V14.01,2013-11-05 20:59:00,
2013-11-05 16:04:00,57.8,48.8,30.21,South,188,0.0,4.0,72,0.00,,---,0.00,VWS V14.01,2013-11-05 21:04:00,
2013-11-05 16:09:00,57.7,49.1,30.21,South,175,1.0,4.0,73,0.00,,---,0.00,VWS V14.01,2013-11-05 21:09:00,
2013-11-05 16:14:00,57.7,48.8,30.21,SSE,163,3.0,4.0,72,0.00,,---,0.00,VWS V14.01,2013-11-05 21:14:00,
2013-11-05 16:19:00,57.6,49.0,30.21,South,189,0.0,4.0,73,0.00,,---,0.00,VWS V14.01,2013-11-05 21:19:00,
2013-11-05 16:24:00,57.5,48.9,30.21,South,189,0.0,4.0,73,0.00,,---,0.00,VWS V14.01,2013-11-05 21:24:00,
2013-11-05 16:29:00,57.5,48.9,30.20,South,189,0.0,4.0,73,0.00,,---,0.00,VWS V14.01,2013-11-05 21:29:00,
2013-11-05 16:34:00,57.4,49.2,30.20,South,188,0.0,2.0,74,0.00,,---,0.00,VWS V14.01,2013-11-05 21:34:00,
2013-11-05 16:39:00,57.3,49.1,30.20,South,188,0.0,2.0,74,0.00,,---,0.00,VWS V14.01,2013-11-05 21:39:00,
2013-11-05 16:44:00,57.2,49.0,30.20,South,188,1.0,2.0,74,0.00,,---,0.00,VWS V14.01,2013-11-05 21:44:00,
2013-11-05 16:49:00,57.2,49.0,30.20,ESE,111,3.0,4.0,74,0.00,,---,0.00,VWS V14.01,2013-11-05 21:49:00,
2013-11-05 16:54:00,57.1,48.9,30.20,South,173,0.0,9.0,74,0.00,,---,0.00,VWS V14.01,2013-11-05 21:54:00,
2013-11-05 16:59:00,57.0,48.8,30.19,South,173,3.0,9.0,74,0.00,,---,0.00,VWS V14.01,2013-11-05 21:59:00,
2013-11-05 17:04:00,56.9,48.7,30.19,SSW,207,0.0,2.0,74,0.00,,---,0.00,VWS V14.01,2013-11-05 22:04:00,
2013-11-05 17:09:00,56.8,48.6,30.19,SE,138,4.0,6.0,74,0.00,,---,0.00,VWS V14.01,2013-11-05 22:09:00,
2013-11-05 17:14:00,56.6,48.8,30.19,South,181,0.0,6.0,75,0.00,,---,0.00,VWS V14.01,2013-11-05 22:14:00,
2013-11-05 17:19:00,56.5,48.7,30.19,SSW,199,1.0,6.0,75,0.00,,---,0.00,VWS V14.01,2013-11-05 22:19:00,
2013-11-05 17:24:00,56.3,48.5,30.19,SSE,149,7.0,7.0,75,0.00,,---,0.00,VWS V14.01,2013-11-05 22:24:00,
2013-11-05 17:29:00,56.1,47.9,30.19,SSE,168,8.0,8.0,74,0.00,,---,0.00,VWS V14.01,2013-11-05 22:29:00,
2013-11-05 17:34:00,56.0,48.2,30.18,SE,124,1.0,3.0,75,0.00,,---,0.00,VWS V14.01,2013-11-05 22:34:00,
2013-11-05 17:39:00,55.9,48.1,30.18,SSE,167,1.0,8.0,75,0.00,,---,0.00,VWS V14.01,2013-11-05 22:39:00,
2013-11-05 17:44:00,55.8,48.0,30.18,ESE,118,0.0,8.0,75,0.00,,---,0.00,VWS V14.01,2013-11-05 22:44:00,
2013-11-05 17:49:00,55.7,47.9,30.17,SW,222,3.0,8.0,75,0.00,,---,0.00,VWS V14.01,2013-11-05 22:49:00,
2013-11-05 17:54:00,55.6,47.8,30.17,SSE,168,1.0,8.0,75,0.00,,---,0.00,VWS V14.01,2013-11-05 22:54:00,
2013-11-05 17:59:00,55.5,47.7,30.17,SSE,155,1.0,8.0,75,0.00,,---,0.00,VWS V14.01,2013-11-05 22:59:00,
2013-11-05 18:04:00,55.5,48.1,30.16,ESE,111,2.0,5.0,76,0.00,,---,0.00,VWS V14.01,2013-11-05 23:04:00,
2013-11-05 18:09:00,55.4,48.0,30.16,SE,127,1.0,5.0,76,0.00,,---,0.00,VWS V14.01,2013-11-05 23:09:00,
2013-11-05 18:14:00,55.3,47.9,30.17,ESE,122,1.0,6.0,76,0.00,,---,0.00,VWS V14.01,2013-11-05 23:14:00,
2013-11-05 18:19:00,55.3,47.9,30.17,SSE,163,0.0,6.0,76,0.00,,---,0.00,VWS V14.01,2013-11-05 23:19:00,
2013-11-05 18:24:00,55.2,47.8,30.17,South,188,3.0,6.0,76,0.00,,---,0.00,VWS V14.01,2013-11-05 23:24:00,
2013-11-05 18:29:00,55.2,47.8,30.17,SE,136,4.0,13.0,76,0.00,,---,0.00,VWS V14.01,2013-11-05 23:29:00,
2013-11-05 18:34:00,55.1,47.7,30.17,SSW,198,2.0,2.0,76,0.00,,---,0.00,VWS V14.01,2013-11-05 23:34:00,
2013-11-05 18:39:00,55.0,47.6,30.17,SSE,153,0.0,5.0,76,0.00,,---,0.00,VWS V14.01,2013-11-05 23:39:00,
2013-11-05 18:44:00,54.9,47.8,30.17,ESE,119,2.0,5.0,77,0.00,,---,0.00,VWS V14.01,2013-11-05 23:44:00,
2013-11-05 18:49:00,54.8,47.7,30.17,ESE,118,1.0,12.0,77,0.00,,---,0.00,VWS V14.01,2013-11-05 23:49:00,
2013-11-05 18:54:00,54.7,47.6,30.17,ESE,111,10.0,12.0,77,0.00,,---,0.00,VWS V14.01,2013-11-05 23:54:00,
2013-11-05 18:59:00,54.6,47.5,30.17,SE,132,2.0,12.0,77,0.00,,---,0.00,VWS V14.01,2013-11-05 23:59:00,
2013-11-05 19:04:00,54.5,47.8,30.17,SSE,157,7.0,8.0,78,0.00,,---,0.00,VWS V14.01,2013-11-06 00:04:00,
2013-11-05 19:09:00,54.4,47.7,30.17,SW,217,7.0,10.0,78,0.00,,---,0.00,VWS V14.01,2013-11-06 00:09:00,
2013-11-05 19:14:00,54.3,47.9,30.17,East,100,1.0,10.0,79,0.00,,---,0.00,VWS V14.01,2013-11-06 00:14:00,
2013-11-05 19:19:00,54.2,47.8,30.17,South,177,7.0,12.0,79,0.00,,---,0.00,VWS V14.01,2013-11-06 00:19:00,
2013-11-05 19:24:00,54.1,47.7,30.17,SSE,165,8.0,12.0,79,0.00,,---,0.00,VWS V14.01,2013-11-06 00:24:00,
2013-11-05 19:29:00,54.0,48.0,30.18,SSE,163,4.0,12.0,80,0.00,,---,0.00,VWS V14.01,2013-11-06 00:29:00,
2013-11-05 19:34:00,53.9,47.9,30.17,SSE,155,1.0,7.0,80,0.00,,---,0.00,VWS V14.01,2013-11-06 00:34:00,
2013-11-05 19:39:00,53.8,48.1,30.17,SE,141,5.0,9.0,81,0.00,,---,0.00,VWS V14.01,2013-11-06 00:39:00,
2013-11-05 19:44:00,53.7,48.0,30.16,WSW,242,1.0,9.0,81,0.00,,---,0.00,VWS V14.01,2013-11-06 00:44:00,
2013-11-05 19:49:00,53.6,47.9,30.16,SE,140,0.0,9.0,81,0.00,,---,0.00,VWS V14.01,2013-11-06 00:49:00,
2013-11-05 19:54:00,53.5,47.8,30.16,SSE,150,2.0,9.0,81,0.00,,---,0.00,VWS V14.01,2013-11-06 00:54:00,
2013-11-05 19:59:00,53.4,48.0,30.15,East,83,0.0,9.0,82,0.00,,---,0.00,VWS V14.01,2013-11-06 00:59:00,
2013-11-05 20:04:00,53.2,47.9,30.15,SW,215,2.0,5.0,82,0.00,,---,0.00,VWS V14.01,2013-11-06 01:04:00,
2013-11-05 20:09:00,53.1,48.1,30.15,SSW,198,0.0,6.0,83,0.00,,---,0.00,VWS V14.01,2013-11-06 01:09:00,
2013-11-05 20:14:00,53.0,48.3,30.15,SE,138,6.0,9.0,84,0.00,,---,0.00,VWS V14.01,2013-11-06 01:14:00,
2013-11-05 20:19:00,52.7,48.3,30.15,SSE,152,3.0,9.0,85,0.00,,---,0.00,VWS V14.01,2013-11-06 01:19:00,
2013-11-05 20:24:00,52.5,48.1,30.14,SE,146,6.0,9.0,85,0.00,,---,0.00,VWS V14.01,2013-11-06 01:24:00,
2013-11-05 20:29:00,52.3,48.2,30.14,South,173,1.0,9.0,86,0.00,,---,0.00,VWS V14.01,2013-11-06 01:29:00,
2013-11-05 20:34:00,52.1,48.0,30.14,SSE,166,2.0,5.0,86,0.00,,---,0.00,VWS V14.01,2013-11-06 01:34:00,
2013-11-05 20:39:00,51.9,48.2,30.14,SSW,197,2.0,8.0,87,0.00,,---,0.00,VWS V14.01,2013-11-06 01:39:00,
2013-11-05 20:44:00,51.8,48.1,30.14,South,183,1.0,8.0,87,0.00,,---,0.00,VWS V14.01,2013-11-06 01:44:00,
2013-11-05 20:49:00,51.7,48.0,30.14,SSW,206,1.0,8.0,87,0.00,,---,0.00,VWS V14.01,2013-11-06 01:49:00,
2013-11-05 20:54:00,51.6,48.2,30.14,SSW,205,0.0,8.0,88,0.00,,---,0.00,VWS V14.01,2013-11-06 01:54:00,
2013-11-05 20:59:00,51.5,48.1,30.13,SSE,161,0.0,8.0,88,0.00,,---,0.00,VWS V14.01,2013-11-06 01:59:00,
2013-11-05 21:04:00,51.5,48.1,30.13,SE,129,3.0,4.0,88,0.00,,---,0.00,VWS V14.01,2013-11-06 02:04:00,
2013-11-05 21:09:00,51.4,48.0,30.13,SSE,147,1.0,6.0,88,0.00,,---,0.00,VWS V14.01,2013-11-06 02:09:00,
2013-11-05 21:14:00,51.3,47.9,30.13,SE,127,3.0,7.0,88,0.00,,---,0.00,VWS V14.01,2013-11-06 02:14:00,
2013-11-05 21:19:00,51.3,48.2,30.12,SE,142,1.0,7.0,89,0.00,,---,0.00,VWS V14.01,2013-11-06 02:19:00,
2013-11-05 21:24:00,51.2,48.1,30.12,ESE,107,1.0,7.0,89,0.00,,---,0.00,VWS V14.01,2013-11-06 02:24:00,
2013-11-05 21:29:00,51.2,48.1,30.12,SSE,158,1.0,7.0,89,0.00,,---,0.00,VWS V14.01,2013-11-06 02:29:00,
2013-11-05 21:34:00,51.1,48.0,30.11,SE,131,4.0,5.0,89,0.00,,---,0.00,VWS V14.01,2013-11-06 02:34:00,
2013-11-05 21:39:00,51.1,47.7,30.11,SE,134,0.0,9.0,88,0.00,,---,0.00,VWS V14.01,2013-11-06 02:39:00,
2013-11-05 21:44:00,51.1,47.7,30.11,ESE,109,1.0,9.0,88,0.00,,---,0.00,VWS V14.01,2013-11-06 02:44:00,
2013-11-05 21:49:00,51.1,48.0,30.11,East,84,1.0,9.0,89,0.00,,---,0.00,VWS V14.01,2013-11-06 02:49:00,
2013-11-05 21:54:00,51.1,47.7,30.10,SE,126,3.0,9.0,88,0.00,,---,0.00,VWS V14.01,2013-11-06 02:54:00,
2013-11-05 21:59:00,51.0,47.6,30.11,South,189,0.0,9.0,88,0.00,,---,0.00,VWS V14.01,2013-11-06 02:59:00,
2013-11-05 22:04:00,51.0,47.6,30.10,East,80,2.0,5.0,88,0.00,,---,0.00,VWS V14.01,2013-11-06 03:04:00,
2013-11-05 22:09:00,51.0,47.6,30.10,ESE,120,0.0,9.0,88,0.00,,---,0.00,VWS V14.01,2013-11-06 03:09:00,
2013-11-05 22:14:00,50.9,47.5,30.10,SSE,157,2.0,9.0,88,0.00,,---,0.00,VWS V14.01,2013-11-06 03:14:00,
2013-11-05 22:19:00,50.9,47.5,30.09,ESE,116,0.0,9.0,88,0.00,,---,0.00,VWS V14.01,2013-11-06 03:19:00,
2013-11-05 22:24:00,50.9,47.5,30.10,SE,146,1.0,9.0,88,0.00,,---,0.00,VWS V14.01,2013-11-06 03:24:00,
2013-11-05 22:29:00,50.9,47.5,30.09,South,181,4.0,9.0,88,0.00,,---,0.00,VWS V14.01,2013-11-06 03:29:00,
2013-11-05 22:34:00,50.9,47.5,30.09,East,88,5.0,6.0,88,0.00,,---,0.00,VWS V14.01,2013-11-06 03:34:00,
2013-11-05 22:39:00,50.9,47.5,30.08,SSE,165,2.0,7.0,88,0.00,,---,0.00,VWS V14.01,2013-11-06 03:39:00,
2013-11-05 22:44:00,50.9,47.5,30.08,SE,140,7.0,9.0,88,0.00,,---,0.00,VWS V14.01,2013-11-06 03:44:00,
2013-11-05 22:49:00,51.0,47.3,30.08,SSE,157,3.0,9.0,87,0.00,,---,0.00,VWS V14.01,2013-11-06 03:49:00,
2013-11-05 22:54:00,51.0,47.3,30.07,East,82,0.0,9.0,87,0.00,,---,0.00,VWS V14.01,2013-11-06 03:54:00,
2013-11-05 22:59:00,51.0,47.3,30.07,SSE,168,3.0,9.0,87,0.00,,---,0.00,VWS V14.01,2013-11-06 03:59:00,
2013-11-05 23:04:00,51.1,47.4,30.07,South,169,0.0,4.0,87,0.00,,---,0.00,VWS V14.01,2013-11-06 04:04:00,
2013-11-05 23:09:00,51.1,47.1,30.07,SE,128,3.0,7.0,86,0.00,,---,0.00,VWS V14.01,2013-11-06 04:09:00,
2013-11-05 23:14:00,51.2,47.2,30.06,SE,132,3.0,8.0,86,0.00,,---,0.00,VWS V14.01,2013-11-06 04:14:00,
2013-11-05 23:19:00,51.2,47.2,30.06,SE,141,2.0,8.0,86,0.00,,---,0.00,VWS V14.01,2013-11-06 04:19:00,
2013-11-05 23:24:00,51.3,47.0,30.06,South,188,0.0,8.0,85,0.00,,---,0.00,VWS V14.01,2013-11-06 04:24:00,
2013-11-05 23:29:00,51.3,47.0,30.06,SE,132,4.0,9.0,85,0.00,,---,0.00,VWS V14.01,2013-11-06 04:29:00,
2013-11-05 23:34:00,51.4,47.0,30.05,South,180,1.0,4.0,85,0.00,,---,0.00,VWS V14.01,2013-11-06 04:34:00,
2013-11-05 23:39:00,51.5,47.2,30.05,SSE,153,5.0,10.0,85,0.00,,---,0.00,VWS V14.01,2013-11-06 04:39:00,
2013-11-05 23:44:00,51.5,46.8,30.05,SSW,193,0.0,10.0,84,0.00,,---,0.00,VWS V14.01,2013-11-06 04:44:00,
2013-11-05 23:49:00,51.5,46.8,30.05,SSW,192,4.0,10.0,84,0.00,,---,0.00,VWS V14.01,2013-11-06 04:49:00,
2013-11-05 23:54:00,51.5,46.8,30.04,South,189,4.0,10.0,84,0.00,,---,0.00,VWS V14.01,2013-11-06 04:54:00,
2013-11-05 23:59:00,51.5,46.8,30.04,SSE,152,3.0,10.0,84,0.00,,---,0.00,VWS V14.01,2013-11-06 04:59:00,